Time;durP1;ratioP1;P1;durP2;ratioP2;P2;SDS_P1;SDS_P2;PMS_P1;PMS_P2;Temp;Humidity;BMP_temperature;BMP_pressure;BME280_temperature;BME280_humidity;BME280_pressure;Samples;Min_cycle;Max_cycle;Signal;HPM_P1;HPM_P2
2021/10/02 00:02:18;;;;;;;7.18;4.18;;;;;;;9.88;nan;101669.00;4916471;29;20043;-80
2021/10/02 00:35:35;;;;;;;7.53;4.82;;;;;;;9.61;nan;101652.38;4905524;29;20063;-80
2021/10/02 00:45:21;;;;;;;6.65;4.47;;;;;;;9.55;nan;101639.06;4921353;29;20038;-81
2021/10/02 00:47:47;;;;;;;8.60;4.93;;;;;;;9.48;nan;101627.59;4908509;29;20040;-81
2021/10/02 00:50:14;;;;;;;7.22;5.10;;;;;;;9.44;nan;101627.22;4913881;29;20034;-79
2021/10/02 00:52:41;;;;;;;6.20;4.53;;;;;;;9.37;nan;101619.25;4909067;29;20031;-79
2021/10/02 00:55:07;;;;;;;9.68;4.82;;;;;;;9.31;nan;101630.81;4918956;29;20043;-79
2021/10/02 00:57:33;;;;;;;8.70;5.10;;;;;;;9.24;nan;101624.69;4917715;29;20035;-80
2021/10/02 00:59:59;;;;;;;8.32;4.80;;;;;;;9.18;nan;101625.56;4905011;29;20040;-80
2021/10/02 01:02:27;;;;;;;9.95;5.10;;;;;;;9.11;nan;101613.28;4910782;29;20035;-80
2021/10/02 01:04:59;;;;;;;6.32;4.45;;;;;;;9.09;nan;101619.66;4904519;29;20029;-81
2021/10/02 01:07:51;;;;;;;8.70;5.35;;;;;;;9.03;nan;101614.38;4905235;29;20115;-81
2021/10/02 01:10:36;;;;;;;8.43;4.72;;;;;;;9.07;nan;101612.91;4895621;29;20028;-81
2021/10/02 01:13:33;;;;;;;8.27;5.03;;;;;;;8.98;nan;101603.53;4913181;29;20060;-81
2021/10/02 01:16:07;;;;;;;8.32;5.00;;;;;;;9.05;nan;101605.09;4885890;29;20035;-81
2021/10/02 01:18:49;;;;;;;12.15;5.55;;;;;;;8.99;nan;101605.97;4905757;29;20043;-80
2021/10/02 01:21:53;;;;;;;9.50;4.82;;;;;;;8.94;nan;101596.94;4918360;29;20035;-80
2021/10/02 01:24:56;;;;;;;8.55;5.20;;;;;;;8.94;nan;101597.75;4912978;29;20028;-79
2021/10/02 01:27:52;;;;;;;9.95;5.20;;;;;;;8.94;nan;101599.63;4913866;29;21862;-79
2021/10/02 01:30:34;;;;;;;10.27;4.85;;;;;;;8.97;nan;101599.19;4914104;29;20063;-80
2021/10/02 01:33:18;;;;;;;9.32;5.35;;;;;;;8.92;nan;101599.00;4898450;29;20118;-80
2021/10/02 01:35:55;;;;;;;6.43;4.83;;;;;;;8.95;nan;101585.22;4908887;29;20243;-80
2021/10/02 01:49:21;;;;;;;7.70;5.38;;;;;;;8.85;nan;101588.38;4909281;29;20079;-81
2021/10/02 01:51:48;;;;;;;8.65;5.35;;;;;;;8.83;nan;101584.28;4909613;29;20060;-81
2021/10/02 01:54:15;;;;;;;8.23;5.22;;;;;;;8.81;nan;101591.72;4911448;29;20450;-80
2021/10/02 01:56:42;;;;;;;8.15;5.40;;;;;;;8.82;nan;101577.31;4905998;29;20557;-80
2021/10/02 01:59:11;;;;;;;7.20;4.93;;;;;;;8.74;nan;101573.03;4897683;29;20114;-81
2021/10/02 02:01:43;;;;;;;9.68;5.13;;;;;;;8.74;nan;101581.03;4898523;29;20063;-81
2021/10/02 02:04:11;;;;;;;13.55;5.65;;;;;;;8.77;nan;101570.75;4894395;29;20578;-81
2021/10/02 02:06:37;;;;;;;9.75;5.75;;;;;;;8.63;nan;101569.22;4893715;29;20119;-81
2021/10/02 02:09:03;;;;;;;11.38;6.25;;;;;;;8.71;nan;101573.47;4912514;29;20108;-81
2021/10/02 02:11:30;;;;;;;9.75;5.53;;;;;;;8.74;nan;101567.69;4913665;29;20043;-81
2021/10/02 02:13:59;;;;;;;8.85;5.63;;;;;;;8.70;nan;101566.50;4913527;29;20032;-81
2021/10/02 02:16:26;;;;;;;9.48;5.05;;;;;;;8.72;nan;101561.75;4920645;29;20062;-80
2021/10/02 02:18:53;;;;;;;6.78;5.53;;;;;;;8.72;nan;101554.53;4892993;29;20116;-81
2021/10/02 02:21:20;;;;;;;8.18;5.18;;;;;;;8.70;nan;101556.63;4912612;29;20027;-80
2021/10/02 02:23:46;;;;;;;8.77;5.47;;;;;;;8.75;nan;101556.78;4919202;29;20249;-79
2021/10/02 02:26:14;;;;;;;12.23;4.93;;;;;;;8.76;nan;101558.41;4912558;29;20623;-79
2021/10/02 02:28:41;;;;;;;8.00;5.47;;;;;;;8.77;nan;101554.72;4913782;29;20036;-79
2021/10/02 02:31:07;;;;;;;10.32;5.72;;;;;;;8.77;nan;101549.38;4889022;29;20069;-80
2021/10/02 02:33:35;;;;;;;9.90;5.28;;;;;;;8.79;nan;101549.97;4912904;29;20551;-80
2021/10/02 02:36:02;;;;;;;10.13;6.10;;;;;;;8.76;nan;101553.06;4899829;29;20130;-80
2021/10/02 02:38:29;;;;;;;9.50;5.50;;;;;;;8.75;nan;101547.94;4902552;29;20083;-79
2021/10/02 02:40:55;;;;;;;14.25;6.22;;;;;;;8.75;nan;101545.28;4893687;29;20036;-79
2021/10/02 02:43:20;;;;;;;8.50;5.15;;;;;;;8.73;nan;101553.50;4907546;29;20487;-79
2021/10/02 02:45:59;;;;;;;9.70;5.35;;;;;;;8.74;nan;101548.97;4896835;29;20447;-79
2021/10/02 02:48:30;;;;;;;8.13;5.68;;;;;;;8.71;nan;101550.25;4917698;29;20039;-79
2021/10/02 02:51:03;;;;;;;9.70;5.70;;;;;;;8.72;nan;101551.88;4906564;29;20033;-80
2021/10/02 02:53:47;;;;;;;10.38;5.90;;;;;;;8.70;nan;101551.28;4907043;29;20036;-79
2021/10/02 02:56:21;;;;;;;9.40;5.70;;;;;;;8.68;nan;101560.53;4911631;29;20139;-79
2021/10/02 02:58:52;;;;;;;9.32;5.63;;;;;;;8.68;nan;101556.03;4900425;29;20036;-79
2021/10/02 03:01:20;;;;;;;10.18;5.47;;;;;;;8.69;nan;101557.66;4902715;29;20020;-79
2021/10/02 03:03:47;;;;;;;11.70;5.80;;;;;;;8.66;nan;101558.09;4912418;29;20039;-79
2021/10/02 03:06:13;;;;;;;6.78;5.30;;;;;;;8.65;nan;101559.13;4906689;29;20028;-79
2021/10/02 03:08:42;;;;;;;9.18;5.60;;;;;;;8.70;nan;101551.28;4914445;29;20032;-80
2021/10/02 03:11:09;;;;;;;8.85;5.18;;;;;;;8.67;nan;101554.38;4916652;29;20032;-79
2021/10/02 03:13:37;;;;;;;10.45;5.93;;;;;;;8.63;nan;101545.16;4909428;29;20035;-80
2021/10/02 03:16:13;;;;;;;11.23;6.10;;;;;;;8.63;nan;101549.69;4916389;29;20079;-79
2021/10/02 03:18:48;;;;;;;10.13;6.10;;;;;;;8.59;nan;101548.47;4910612;29;20036;-80
2021/10/02 03:21:15;;;;;;;14.05;6.22;;;;;;;8.62;nan;101546.22;4896740;29;20020;-79
2021/10/02 03:23:44;;;;;;;8.75;5.75;;;;;;;8.63;nan;101555.84;4912817;29;20052;-79
2021/10/02 03:26:10;;;;;;;10.82;6.05;;;;;;;8.61;nan;101554.41;4918997;29;20042;-79
2021/10/02 03:28:37;;;;;;;10.05;6.07;;;;;;;8.64;nan;101552.16;4897741;29;20095;-79
2021/10/02 03:31:03;;;;;;;10.93;6.00;;;;;;;8.64;nan;101559.34;4912293;29;20047;-79
2021/10/02 03:33:30;;;;;;;8.18;5.70;;;;;;;8.67;nan;101554.38;4902994;29;20030;-79
2021/10/02 03:35:56;;;;;;;7.22;5.85;;;;;;;8.66;nan;101552.75;4900186;29;20036;-80
2021/10/02 03:38:23;;;;;;;8.57;5.95;;;;;;;8.69;nan;101546.97;4913041;29;20788;-81
2021/10/02 03:40:49;;;;;;;9.15;6.30;;;;;;;8.67;nan;101549.03;4894044;29;20496;-80
2021/10/02 03:43:15;;;;;;;9.32;6.05;;;;;;;8.67;nan;101546.38;4907106;29;20038;-80
2021/10/02 03:45:40;;;;;;;11.88;6.85;;;;;;;8.69;nan;101546.97;4899484;29;20103;-81
2021/10/02 03:48:06;;;;;;;10.23;6.18;;;;;;;8.56;nan;101533.69;4894377;29;20039;-80
2021/10/02 03:50:33;;;;;;;8.68;5.88;;;;;;;8.65;nan;101543.09;4909938;29;20024;-79
2021/10/02 03:52:59;;;;;;;12.05;6.45;;;;;;;8.63;nan;101539.81;4887028;29;20538;-79
2021/10/02 03:55:24;;;;;;;10.25;6.15;;;;;;;8.57;nan;101539.84;4908964;29;20039;-80
2021/10/02 03:57:50;;;;;;;9.18;6.75;;;;;;;8.53;nan;101542.13;4907309;29;20042;-80
2021/10/02 04:00:16;;;;;;;10.57;6.28;;;;;;;8.58;nan;101536.16;4907884;29;20032;-80
2021/10/02 04:02:43;;;;;;;13.43;7.13;;;;;;;8.51;nan;101532.72;4905748;29;20032;-80
2021/10/02 04:05:09;;;;;;;10.60;7.05;;;;;;;8.57;nan;101538.00;4899770;29;20051;-80
2021/10/02 04:07:35;;;;;;;10.13;6.40;;;;;;;8.57;nan;101532.66;4913766;29;20070;-80
2021/10/02 04:10:01;;;;;;;11.70;6.90;;;;;;;8.54;nan;101533.09;4916046;29;20047;-80
2021/10/02 04:12:27;;;;;;;11.80;6.45;;;;;;;8.60;nan;101537.56;4917794;29;20539;-80
2021/10/02 04:14:52;;;;;;;9.55;6.45;;;;;;;8.57;nan;101531.84;4912151;29;20119;-80
2021/10/02 04:17:18;;;;;;;8.02;5.93;;;;;;;8.47;nan;101538.47;4903446;29;20099;-80
2021/10/02 04:19:43;;;;;;;13.45;6.40;;;;;;;8.36;nan;101539.16;4908951;29;20087;-80
2021/10/02 04:22:12;;;;;;;8.52;6.28;;;;;;;8.32;nan;101535.25;4887999;29;20032;-80
2021/10/02 04:24:40;;;;;;;10.40;6.95;;;;;;;8.32;nan;101532.56;4903188;29;20124;-79
2021/10/02 04:27:07;;;;;;;10.50;6.35;;;;;;;8.12;nan;101529.19;4895052;29;20110;-80
2021/10/02 04:29:33;;;;;;;11.80;7.38;;;;;;;8.25;nan;101525.63;4922338;29;20023;-79
2021/10/02 04:31:58;;;;;;;11.70;6.90;;;;;;;8.17;nan;101534.72;4898436;29;20040;-80
2021/10/02 04:34:24;;;;;;;9.30;6.80;;;;;;;8.04;nan;101534.75;4909022;29;20110;-80
2021/10/02 04:36:53;;;;;;;12.13;6.65;;;;;;;7.88;nan;101536.88;4898740;29;20403;-80
2021/10/02 04:39:18;;;;;;;10.73;6.32;;;;;;;7.89;nan;101532.34;4914223;29;20091;-80
2021/10/02 04:41:44;;;;;;;10.10;6.50;;;;;;;7.74;nan;101543.28;4913133;29;20024;-80
2021/10/02 04:44:09;;;;;;;10.63;6.68;;;;;;;7.82;nan;101539.56;4911829;29;20671;-80
2021/10/02 04:46:35;;;;;;;10.52;6.78;;;;;;;7.82;nan;101536.91;4895114;29;20032;-80
2021/10/02 04:49:00;;;;;;;11.68;7.18;;;;;;;7.88;nan;101533.38;4894520;29;20035;-80
2021/10/02 04:51:26;;;;;;;9.57;6.72;;;;;;;7.85;nan;101528.47;4909471;29;20551;-80
2021/10/02 04:53:51;;;;;;;13.45;7.63;;;;;;;7.91;nan;101532.16;4908281;29;20032;-80
2021/10/02 04:56:19;;;;;;;11.50;7.13;;;;;;;7.91;nan;101522.31;4909643;29;20185;-80
2021/10/02 04:58:45;;;;;;;12.90;7.78;;;;;;;7.89;nan;101529.69;4900468;29;20087;-80
2021/10/02 05:01:14;;;;;;;9.85;6.93;;;;;;;7.95;nan;101526.19;4896163;29;20111;-80
2021/10/02 05:03:41;;;;;;;12.13;7.82;;;;;;;8.00;nan;101526.34;4898722;29;20036;-79
2021/10/02 05:06:07;;;;;;;14.38;8.07;;;;;;;7.99;nan;101534.59;4916566;29;20582;-79
2021/10/02 05:08:34;;;;;;;12.13;8.20;;;;;;;8.02;nan;101528.81;4891957;29;20032;-80
2021/10/02 05:11:01;;;;;;;12.98;7.90;;;;;;;8.10;nan;101528.59;4917625;29;20118;-79
2021/10/02 05:13:27;;;;;;;14.25;8.30;;;;;;;8.11;nan;101527.56;4899531;29;20103;-79
2021/10/02 05:15:53;;;;;;;11.27;7.30;;;;;;;8.17;nan;101532.84;4899056;29;20048;-79
2021/10/02 05:18:19;;;;;;;11.52;7.55;;;;;;;8.19;nan;101525.44;4910149;29;20043;-80
2021/10/02 05:20:45;;;;;;;12.30;7.32;;;;;;;8.23;nan;101523.16;4898094;29;20488;-80
2021/10/02 05:23:10;;;;;;;14.45;7.60;;;;;;;8.31;nan;101516.78;4911273;29;20031;-79
2021/10/02 05:25:36;;;;;;;15.20;7.53;;;;;;;8.38;nan;101515.72;4902196;29;20562;-80
2021/10/02 05:28:02;;;;;;;9.95;7.45;;;;;;;8.50;nan;101515.03;4910572;29;20034;-79
2021/10/02 05:30:27;;;;;;;11.73;7.10;;;;;;;8.58;nan;101528.13;4902455;29;20055;-79
2021/10/02 05:32:53;;;;;;;15.55;7.28;;;;;;;8.64;nan;101522.75;4899729;29;20115;-79
2021/10/02 05:35:19;;;;;;;12.45;6.70;;;;;;;8.69;nan;101525.59;4906933;29;20060;-79
2021/10/02 05:37:45;;;;;;;13.30;7.43;;;;;;;8.81;nan;101516.91;4908169;29;20036;-79
2021/10/02 05:40:10;;;;;;;10.77;6.82;;;;;;;8.81;nan;101533.75;4909343;29;20100;-79
2021/10/02 05:42:36;;;;;;;13.70;7.45;;;;;;;8.79;nan;101535.78;4892422;29;20043;-79
2021/10/02 05:45:03;;;;;;;12.57;7.60;;;;;;;8.75;nan;101535.41;4901037;29;20597;-83
2021/10/02 05:47:30;;;;;;;10.20;6.90;;;;;;;8.75;nan;101540.75;4910884;29;20032;-81
2021/10/02 05:49:56;;;;;;;11.23;7.40;;;;;;;8.78;nan;101534.97;4919725;29;20570;-80
2021/10/02 05:52:21;;;;;;;10.35;6.68;;;;;;;8.81;nan;101533.75;4912007;29;20031;-81
2021/10/02 05:54:47;;;;;;;10.15;7.35;;;;;;;8.83;nan;101544.22;4889798;29;20091;-81
2021/10/02 05:57:12;;;;;;;13.93;8.13;;;;;;;8.75;nan;101542.59;4895081;29;20024;-80
2021/10/02 05:59:38;;;;;;;10.23;7.05;;;;;;;8.85;nan;101542.13;4896654;29;20091;-81
2021/10/02 06:02:03;;;;;;;13.32;6.90;;;;;;;8.92;nan;101548.25;4914371;29;20020;-79
2021/10/02 06:04:29;;;;;;;11.07;7.13;;;;;;;8.97;nan;101543.06;4900710;29;20036;-79
2021/10/02 06:06:55;;;;;;;13.45;7.15;;;;;;;9.12;nan;101535.53;4905103;29;20032;-79
2021/10/02 06:09:20;;;;;;;11.52;6.97;;;;;;;9.21;nan;101539.56;4905106;29;20024;-79
2021/10/02 06:11:46;;;;;;;14.70;6.93;;;;;;;9.34;nan;101541.31;4896927;29;20092;-80
2021/10/02 06:14:12;;;;;;;11.68;6.93;;;;;;;9.37;nan;101536.34;4892254;29;20024;-80
2021/10/02 06:16:38;;;;;;;11.52;7.15;;;;;;;9.48;nan;101536.63;4898806;29;20032;-80
2021/10/02 06:19:07;;;;;;;12.10;7.15;;;;;;;9.58;nan;101539.63;4897002;29;20801;-79
2021/10/02 06:21:33;;;;;;;14.15;7.43;;;;;;;9.76;nan;101539.63;4888723;29;20047;-79
2021/10/02 06:23:59;;;;;;;10.70;6.60;;;;;;;9.93;nan;101527.28;4911115;29;20051;-80
2021/10/02 06:26:31;;;;;;;12.95;6.70;;;;;;;10.05;nan;101532.69;4900152;29;20031;-79
2021/10/02 06:28:57;;;;;;;14.48;6.80;;;;;;;10.18;nan;101529.03;4919343;29;20577;-79
2021/10/02 06:31:23;;;;;;;10.50;6.95;;;;;;;10.33;nan;101539.38;4890191;29;20059;-79
2021/10/02 06:33:49;;;;;;;10.00;6.53;;;;;;;10.24;nan;101537.03;4901439;29;20060;-80
2021/10/02 06:36:16;;;;;;;9.40;6.45;;;;;;;10.35;nan;101540.78;4890470;29;20083;-79
2021/10/02 06:38:42;;;;;;;11.77;6.93;;;;;;;10.34;nan;101544.50;4906200;29;20455;-79
2021/10/02 06:41:08;;;;;;;12.18;7.00;;;;;;;10.34;nan;101551.72;4918845;29;20036;-79
2021/10/02 06:43:34;;;;;;;13.18;7.40;;;;;;;10.35;nan;101540.78;4906038;29;20031;-79
2021/10/02 06:46:00;;;;;;;11.48;6.95;;;;;;;10.42;nan;101540.69;4861357;29;1185898;-80
2021/10/02 06:48:26;;;;;;;12.32;6.93;;;;;;;10.38;nan;101540.31;4896715;29;20032;-79
2021/10/02 06:50:52;;;;;;;12.50;6.75;;;;;;;10.34;nan;101541.81;4907613;29;20088;-79
2021/10/02 06:53:17;;;;;;;10.82;6.63;;;;;;;10.40;nan;101540.09;4896314;29;20120;-79
2021/10/02 06:55:43;;;;;;;10.50;6.32;;;;;;;10.41;nan;101550.59;4904828;29;20435;-78
2021/10/02 06:58:09;;;;;;;9.15;6.35;;;;;;;10.41;nan;101555.97;4912834;29;20032;-80
2021/10/02 07:00:35;;;;;;;11.05;6.60;;;;;;;10.51;nan;101550.84;4909511;29;20024;-78
2021/10/02 07:03:01;;;;;;;13.60;6.28;;;;;;;10.56;nan;101553.66;4890079;29;20100;-79
2021/10/02 07:05:27;;;;;;;11.73;7.25;;;;;;;10.73;nan;101547.66;4908713;29;20042;-78
2021/10/02 07:07:55;;;;;;;9.32;6.55;;;;;;;10.98;nan;101548.31;4915701;29;20028;-79
2021/10/02 07:10:21;;;;;;;9.20;6.38;;;;;;;11.16;nan;101552.75;4894024;29;20491;-79
2021/10/02 07:12:50;;;;;;;12.27;6.78;;;;;;;11.31;nan;101557.63;4919742;29;20035;-78
2021/10/02 07:15:16;;;;;;;10.15;6.22;;;;;;;11.42;nan;101556.84;4918142;29;20034;-78
2021/10/02 07:17:42;;;;;;;14.43;7.15;;;;;;;11.34;nan;101558.00;4907044;29;20044;-79
2021/10/02 07:20:09;;;;;;;12.55;6.78;;;;;;;11.43;nan;101547.72;4887011;29;20035;-79
2021/10/02 07:22:37;;;;;;;9.60;6.55;;;;;;;11.66;nan;101542.31;4899029;29;20032;-78
2021/10/02 07:25:05;;;;;;;9.23;6.70;;;;;;;11.87;nan;101548.19;4899751;29;20100;-78
2021/10/02 07:27:32;;;;;;;13.90;7.30;;;;;;;11.96;nan;101554.81;4907410;29;20498;-80
2021/10/02 07:29:58;;;;;;;9.18;6.28;;;;;;;11.91;nan;101546.66;4894842;29;20025;-79
2021/10/02 07:32:24;;;;;;;11.35;5.93;;;;;;;12.17;nan;101554.16;4912287;29;20503;-80
2021/10/02 07:34:53;;;;;;;9.80;7.18;;;;;;;12.33;nan;101545.34;4916552;29;20044;-80
2021/10/02 07:37:19;;;;;;;8.40;5.88;;;;;;;12.32;nan;101557.13;4901276;29;20611;-79
2021/10/02 07:39:44;;;;;;;7.68;6.20;;;;;;;12.20;nan;101553.66;4893323;29;20079;-80
2021/10/02 07:42:15;;;;;;;8.20;6.00;;;;;;;11.83;nan;101557.75;4913951;29;20043;-79
2021/10/02 07:44:43;;;;;;;9.88;6.20;;;;;;;11.93;nan;101557.97;4914405;29;20032;-80
2021/10/02 07:47:10;;;;;;;8.23;6.30;;;;;;;11.90;nan;101558.44;4914110;29;20031;-79
2021/10/02 07:49:37;;;;;;;10.60;6.65;;;;;;;12.07;nan;101554.78;4902321;29;20024;-80
2021/10/02 07:52:04;;;;;;;16.13;6.53;;;;;;;12.10;nan;101546.25;4912738;29;20059;-80
2021/10/02 07:54:32;;;;;;;8.10;6.05;;;;;;;12.19;nan;101540.47;4911686;29;20051;-80
2021/10/02 07:56:58;;;;;;;11.18;5.65;;;;;;;12.35;nan;101524.41;4903668;29;20124;-80
2021/10/02 07:59:25;;;;;;;8.07;5.45;;;;;;;12.47;nan;101521.69;4914168;29;20028;-80
2021/10/02 08:01:51;;;;;;;8.65;6.10;;;;;;;12.58;nan;101510.06;4910487;29;20063;-80
2021/10/02 08:04:17;;;;;;;12.35;6.07;;;;;;;12.72;nan;101513.22;4887628;29;20189;-80
2021/10/02 08:06:44;;;;;;;10.38;5.47;;;;;;;12.78;nan;101511.47;4905450;29;20032;-81
2021/10/02 08:09:10;;;;;;;9.38;5.95;;;;;;;12.90;nan;101521.06;4899761;29;20044;-79
2021/10/02 08:11:36;;;;;;;7.80;5.25;;;;;;;12.88;nan;101527.75;4884211;29;20020;-78
2021/10/02 08:14:01;;;;;;;11.45;5.93;;;;;;;12.76;nan;101521.66;4888736;29;20783;-78
2021/10/02 08:16:30;;;;;;;9.50;6.03;;;;;;;12.62;nan;101539.94;4900294;29;20510;-79
2021/10/02 08:19:00;;;;;;;8.48;5.32;;;;;;;12.35;nan;101548.59;4910573;29;20036;-78
2021/10/02 08:21:27;;;;;;;8.55;5.10;;;;;;;12.14;nan;101532.34;4906713;29;20070;-79
2021/10/02 08:23:53;;;;;;;6.93;5.57;;;;;;;12.31;nan;101534.00;4891177;29;20033;-79
2021/10/02 08:26:20;;;;;;;9.30;5.78;;;;;;;12.43;nan;101525.09;4915623;29;20509;-79
2021/10/02 08:28:49;;;;;;;8.93;5.70;;;;;;;12.62;nan;101518.44;4912506;29;20138;-79
2021/10/02 08:31:18;;;;;;;8.45;4.95;;;;;;;12.79;nan;101513.91;4897506;29;20091;-79
2021/10/02 08:33:44;;;;;;;7.82;5.65;;;;;;;12.98;nan;101504.53;4914044;29;20032;-79
2021/10/02 08:36:11;;;;;;;9.02;6.05;;;;;;;13.12;nan;101506.88;4892751;29;20063;-80
2021/10/02 08:38:37;;;;;;;7.05;5.10;;;;;;;13.25;nan;101511.94;4903582;29;20040;-80
2021/10/02 08:41:05;;;;;;;7.70;5.88;;;;;;;13.46;nan;101508.47;4891701;29;20028;-79
2021/10/02 08:43:33;;;;;;;11.50;6.38;;;;;;;13.58;nan;101511.88;4893078;29;20402;-79
2021/10/02 08:46:00;;;;;;;10.43;5.38;;;;;;;13.53;nan;101511.81;4895041;29;20261;-79
2021/10/02 08:48:26;;;;;;;7.57;5.25;;;;;;;13.63;nan;101513.00;4899825;29;20044;-80
2021/10/02 08:50:55;;;;;;;6.93;5.47;;;;;;;13.58;nan;101506.47;4897276;29;20032;-79
2021/10/02 08:53:22;;;;;;;8.27;5.60;;;;;;;13.68;nan;101494.22;4915331;29;20032;-79
2021/10/02 08:55:47;;;;;;;7.03;5.15;;;;;;;13.71;nan;101491.03;4887604;29;20044;-78
2021/10/02 08:58:13;;;;;;;7.55;4.78;;;;;;;13.49;nan;101491.03;4890386;29;20031;-79
2021/10/02 09:00:40;;;;;;;7.68;5.47;;;;;;;13.77;nan;101485.44;4900481;29;20534;-80
2021/10/02 09:03:06;;;;;;;8.75;5.38;;;;;;;13.99;nan;101476.53;4893100;29;20020;-79
2021/10/02 09:05:31;;;;;;;8.05;5.60;;;;;;;14.37;nan;101479.09;4887179;29;20024;-79
2021/10/02 09:07:59;;;;;;;9.27;5.65;;;;;;;14.89;nan;101477.66;4894367;29;20437;-80
2021/10/02 09:10:27;;;;;;;7.22;5.38;;;;;;;15.08;nan;101474.28;4915392;29;20040;-80
2021/10/02 09:12:52;;;;;;;8.57;5.10;;;;;;;15.10;nan;101482.94;4908731;29;20352;-80
2021/10/02 09:15:19;;;;;;;6.55;5.28;;;;;;;15.25;nan;101486.78;4916391;29;20030;-80
2021/10/02 09:17:46;;;;;;;6.95;4.00;;;;;;;15.30;nan;101487.66;4905118;29;20144;-79
2021/10/02 09:20:13;;;;;;;11.20;5.15;;;;;;;15.35;nan;101476.06;4917142;29;20426;-80
2021/10/02 09:22:39;;;;;;;8.98;5.07;;;;;;;15.46;nan;101474.25;4911920;29;20029;-82
2021/10/02 09:25:09;;;;;;;6.10;4.80;;;;;;;15.33;nan;101473.63;4900915;29;20387;-82
2021/10/02 09:27:36;;;;;;;7.25;5.07;;;;;;;15.30;nan;101471.44;4897593;29;20089;-81
2021/10/02 09:30:10;;;;;;;5.78;4.50;;;;;;;15.41;nan;101473.13;4915921;29;20028;-82
2021/10/02 09:32:37;;;;;;;;;;;;;;;15.61;nan;101474.31;4894452;29;20083;-80
2021/10/02 09:35:15;;;;;;;9.00;4.57;;;;;;;15.87;nan;101486.03;4899655;29;19915;-79
2021/10/02 09:37:43;;;;;;;5.78;4.25;;;;;;;15.70;nan;101494.34;4915681;29;20032;-79
2021/10/02 09:40:19;;;;;;;7.15;4.63;;;;;;;15.64;nan;101498.94;4912313;29;20040;-80
2021/10/02 09:42:49;;;;;;;6.28;4.25;;;;;;;15.60;nan;101500.50;4915351;29;20564;-81
2021/10/02 09:45:25;;;;;;;9.25;5.03;;;;;;;15.65;nan;101502.44;4912813;29;20035;-81
2021/10/02 09:47:59;;;;;;;6.78;5.05;;;;;;;16.05;nan;101500.97;4888377;29;20028;-80
2021/10/02 09:50:32;;;;;;;11.88;6.15;;;;;;;16.08;nan;101505.84;4893037;29;20040;-80
2021/10/02 09:53:18;;;;;;;7.90;5.53;;;;;;;16.06;nan;101505.28;4908782;29;20039;-81
2021/10/02 09:55:46;;;;;;;12.00;5.50;;;;;;;16.17;nan;101493.44;4882513;29;20089;-82
2021/10/02 09:58:31;;;;;;;7.93;4.97;;;;;;;16.42;nan;101496.16;4902875;29;20046;-81
2021/10/02 10:00:57;;;;;;;8.60;4.50;;;;;;;16.61;nan;101497.25;4903842;29;20025;-81
2021/10/02 10:03:23;;;;;;;6.47;4.78;;;;;;;16.80;nan;101492.16;4907853;29;20059;-81
2021/10/02 10:05:53;;;;;;;6.55;4.40;;;;;;;16.99;nan;101495.13;4905528;29;20032;-81
2021/10/02 10:08:26;;;;;;;6.60;4.68;;;;;;;16.81;nan;101482.16;4906428;29;20123;-82
2021/10/02 10:11:03;;;;;;;11.07;4.40;;;;;;;17.07;nan;101491.06;4901445;29;20039;-81
2021/10/02 10:13:29;;;;;;;6.45;4.00;;;;;;;17.30;nan;101501.31;4906366;29;20058;-81
2021/10/02 10:15:55;;;;;;;5.05;3.70;;;;;;;17.22;nan;101499.94;4901174;29;20024;-81
2021/10/02 10:18:34;;;;;;;7.68;4.60;;;;;;;16.99;nan;101500.53;4905189;29;20069;-81
2021/10/02 10:21:04;;;;;;;7.15;4.28;;;;;;;16.91;nan;101492.97;4907677;29;20091;-81
2021/10/02 10:23:34;;;;;;;9.68;4.32;;;;;;;16.60;nan;101492.13;4897135;29;20024;-81
2021/10/02 10:26:05;;;;;;;5.68;4.20;;;;;;;16.59;nan;101485.91;4900816;29;20028;-81
2021/10/02 10:28:33;;;;;;;4.78;4.03;;;;;;;16.71;nan;101472.16;4902134;29;20036;-81
2021/10/02 10:31:23;;;;;;;6.10;4.00;;;;;;;16.90;nan;101483.22;4906940;29;20036;-81
2021/10/02 10:33:52;;;;;;;4.90;3.60;;;;;;;16.86;nan;101485.66;4909152;29;20028;-81
2021/10/02 10:36:20;;;;;;;8.63;3.85;;;;;;;16.95;nan;101491.34;4909713;29;20031;-82
2021/10/02 10:38:49;;;;;;;6.93;3.80;;;;;;;17.24;nan;101494.28;4895622;29;20440;-82
2021/10/02 10:41:16;;;;;;;5.07;3.63;;;;;;;17.36;nan;101486.66;4900216;29;20088;-81
2021/10/02 10:43:42;;;;;;;5.88;3.35;;;;;;;17.44;nan;101486.09;4906438;29;20107;-81
2021/10/02 10:46:14;;;;;;;8.45;3.75;;;;;;;17.32;nan;101488.28;4904469;29;20666;-81
2021/10/02 10:48:40;;;;;;;3.95;3.45;;;;;;;17.39;nan;101486.09;4894512;29;20044;-82
2021/10/02 10:51:19;;;;;;;4.63;3.20;;;;;;;17.74;nan;101490.59;4889083;29;20036;-82
2021/10/02 10:53:53;;;;;;;5.82;3.47;;;;;;;17.68;nan;101477.38;4897959;29;20027;-82
2021/10/02 10:56:39;;;;;;;4.90;3.33;;;;;;;17.45;nan;101471.47;4912104;29;20024;-82
2021/10/02 10:59:05;;;;;;;6.32;4.15;;;;;;;17.57;nan;101473.03;4907024;29;20064;-82
2021/10/02 11:01:39;;;;;;;5.38;3.05;;;;;;;17.61;nan;101453.25;4906949;29;20099;-82
2021/10/02 11:04:06;;;;;;;4.80;3.53;;;;;;;18.11;nan;101445.94;4908763;29;20464;-82
2021/10/02 11:06:50;;;;;;;6.63;2.90;;;;;;;18.28;nan;101445.56;4905041;29;20037;-82
2021/10/02 11:09:16;;;;;;;3.95;2.70;;;;;;;18.31;nan;101440.41;4910007;29;20047;-82
2021/10/02 11:11:45;;;;;;;4.97;2.50;;;;;;;18.51;nan;101441.31;4893047;29;21460;-81
2021/10/02 11:14:15;;;;;;;3.85;2.78;;;;;;;18.33;nan;101443.63;4903882;29;20435;-82
2021/10/02 11:16:43;;;;;;;3.53;2.10;;;;;;;18.29;nan;101453.41;4902123;29;20027;-83
2021/10/02 11:19:39;;;;;;;4.95;2.83;;;;;;;18.34;nan;101450.69;4903381;29;20032;-81
2021/10/02 11:22:30;;;;;;;3.67;2.40;;;;;;;18.56;nan;101455.66;4886757;29;20666;-84
2021/10/02 11:24:55;;;;;;;5.28;2.38;;;;;;;18.72;nan;101445.50;4908443;29;20031;-82
2021/10/02 11:27:23;;;;;;;3.28;2.42;;;;;;;19.00;nan;101439.25;4907030;29;20555;-82
2021/10/02 11:29:50;;;;;;;4.78;2.78;;;;;;;19.59;nan;101432.63;4909195;29;20028;-82
2021/10/02 11:32:27;;;;;;;3.05;2.50;;;;;;;20.54;nan;101432.59;4909384;29;20035;-82
2021/10/02 11:35:10;;;;;;;2.47;2.25;;;;;;;22.14;nan;101433.50;4917977;23;20092;-49
2021/10/02 11:38:07;;;;;;;3.25;2.15;;;;;;;21.86;nan;101427.28;4913423;29;20241;-48
2021/10/02 11:40:32;;;;;;;4.72;2.25;;;;;;;22.28;nan;101432.34;4906835;29;20125;-48
2021/10/02 11:43:22;;;;;;;4.47;2.30;;;;;;;23.73;nan;101429.78;4913293;29;20043;-48
2021/10/02 11:45:47;;;;;;;4.85;2.47;;;;;;;24.68;nan;101416.03;4905293;29;20107;-49
2021/10/02 11:48:18;;;;;;;3.80;2.53;;;;;;;26.72;nan;101414.47;4939203;23;20486;-83
2021/10/02 11:51:16;;;;;;;3.97;2.70;;;;;;;27.91;nan;101408.81;4901925;29;20056;-83
2021/10/02 11:53:54;;;;;;;4.85;2.42;;;;;;;27.33;nan;101406.28;4895409;29;20040;-82
2021/10/02 11:56:28;;;;;;;3.30;2.22;;;;;;;27.75;nan;101403.25;4906811;29;20035;-83
2021/10/02 11:58:57;;;;;;;6.18;2.60;;;;;;;27.10;nan;101402.38;4905396;29;20028;-83
2021/10/02 12:04:12;;;;;;;4.05;2.50;;;;;;;26.71;nan;101401.88;4896594;29;20052;-56
2021/10/02 12:06:40;;;;;;;5.43;2.88;;;;;;;27.23;nan;101395.72;4888276;29;20491;-55
2021/10/02 12:09:17;;;;;;;7.25;2.50;;;;;;;28.28;nan;101384.69;4889216;29;20414;-56
2021/10/02 12:11:51;;;;;;;5.15;2.20;;;;;;;29.44;nan;101379.66;4887261;29;21579;-55
2021/10/02 12:14:20;;;;;;;;;;;;;;;29.90;nan;101380.66;4890201;29;20028;-55
2021/10/02 12:16:55;;;;;;;3.10;2.40;;;;;;;30.23;nan;101385.69;4889599;29;19924;-56
2021/10/02 12:19:22;;;;;;;3.28;1.92;;;;;;;29.67;nan;101391.66;4888663;29;20056;-55
2021/10/02 12:21:50;;;;;;;2.92;1.95;;;;;;;30.18;nan;101396.25;4887384;29;20033;-56
2021/10/02 12:24:29;;;;;;;3.13;2.00;;;;;;;30.73;nan;101389.38;4888642;29;20491;-56
2021/10/02 12:27:03;;;;;;;4.30;2.10;;;;;;;32.47;nan;101377.84;4887462;29;20115;-56
2021/10/02 12:29:39;;;;;;;5.82;2.60;;;;;;;32.60;nan;101381.13;4887879;29;20055;-56
2021/10/02 12:32:11;;;;;;;3.22;1.88;;;;;;;33.21;nan;101376.84;4886978;29;20115;-55
2021/10/02 12:34:38;;;;;;;2.08;1.60;;;;;;;31.99;nan;101376.13;4884013;29;20376;-56
2021/10/02 12:37:08;;;;;;;4.35;1.70;;;;;;;31.45;nan;101364.38;4888356;29;20424;-55
2021/10/02 12:39:42;;;;;;;3.97;2.20;;;;;;;30.74;nan;101368.84;4889943;29;20036;-55
2021/10/02 12:42:10;;;;;;;3.25;2.30;;;;;;;30.67;nan;101369.50;4888732;29;20024;-55
2021/10/02 12:44:39;;;;;;;2.50;1.88;;;;;;;30.25;nan;101375.06;4885952;29;20437;-55
2021/10/02 12:47:08;;;;;;;3.53;2.55;;;;;;;31.73;nan;101360.38;4885352;29;20509;-56